createdAt,value
2019-01-02T00:00:55.689Z,986.55
2019-01-02T00:01:55.657Z,986.62
2019-01-02T00:02:55.649Z,986.52
2019-01-02T00:03:55.641Z,986.59
2019-01-02T00:04:55.649Z,986.56
2019-01-02T00:05:55.644Z,986.58
2019-01-02T00:06:55.605Z,986.50
2019-01-02T00:07:55.601Z,986.45
2019-01-02T00:08:55.579Z,986.45
2019-01-02T00:09:55.569Z,986.43
2019-01-02T00:10:55.587Z,986.50
2019-01-02T00:11:55.548Z,986.43
2019-01-02T00:12:55.535Z,986.48
2019-01-02T00:13:55.575Z,986.51
2019-01-02T00:14:55.525Z,986.51
2019-01-02T00:15:55.543Z,986.45
2019-01-02T00:16:55.527Z,986.46
2019-01-02T00:17:55.507Z,986.49
2019-01-02T00:18:55.463Z,986.46
2019-01-02T00:19:55.509Z,986.43
2019-01-02T00:20:55.441Z,986.41
2019-01-02T00:21:56.729Z,986.47
2019-01-02T00:22:55.442Z,986.56
2019-01-02T00:23:55.407Z,986.46
2019-01-02T00:24:55.406Z,986.52
2019-01-02T00:25:55.442Z,986.52
2019-01-02T00:26:55.392Z,986.50
2019-01-02T00:27:55.373Z,986.45
2019-01-02T00:28:55.405Z,986.46
2019-01-02T00:29:55.347Z,986.44
2019-01-02T00:30:55.338Z,986.49
2019-01-02T00:31:55.334Z,986.43
2019-01-02T00:32:55.309Z,986.39
2019-01-02T00:33:55.296Z,986.34
2019-01-02T00:34:55.309Z,986.35
2019-01-02T00:35:55.271Z,986.34
2019-01-02T00:36:55.296Z,986.33
2019-01-02T00:37:55.264Z,986.34
2019-01-02T00:38:55.252Z,986.33
2019-01-02T00:39:55.229Z,986.35
2019-01-02T00:40:55.226Z,986.41
2019-01-02T00:41:55.231Z,986.46
2019-01-02T00:42:55.203Z,986.42
2019-01-02T00:43:55.184Z,986.39
2019-01-02T00:44:55.178Z,986.37
2019-01-02T00:45:55.168Z,986.45
2019-01-02T00:46:55.216Z,986.42
2019-01-02T00:47:55.149Z,986.36
2019-01-02T00:48:55.133Z,986.41
2019-01-02T00:49:55.118Z,986.39
2019-01-02T00:50:55.106Z,986.41
2019-01-02T00:51:55.107Z,986.43
2019-01-02T00:52:55.149Z,986.41
2019-01-02T00:53:55.074Z,986.37
2019-01-02T00:54:55.063Z,986.35
2019-01-02T00:55:55.053Z,986.30
2019-01-02T00:56:55.061Z,986.34
2019-01-02T00:57:55.035Z,986.50
2019-01-02T00:58:55.020Z,986.45
2019-01-02T00:59:55.010Z,986.42
2019-01-02T01:00:55.005Z,986.49
2019-01-02T01:01:55.004Z,986.48
2019-01-02T01:02:54.989Z,986.48
2019-01-02T01:03:54.960Z,986.50
2019-01-02T01:04:54.961Z,986.47
2019-01-02T01:05:54.953Z,986.51
2019-01-02T01:06:54.949Z,986.56
2019-01-02T01:07:54.913Z,986.49
2019-01-02T01:08:54.917Z,986.55
2019-01-02T01:09:54.912Z,986.59
2019-01-02T01:10:54.891Z,986.52
2019-01-02T01:11:54.878Z,986.58
2019-01-02T01:12:54.872Z,986.63
2019-01-02T01:13:54.854Z,986.63
2019-01-02T01:14:54.836Z,986.58
2019-01-02T01:15:54.830Z,986.81
2019-01-02T01:16:54.822Z,986.61
2019-01-02T01:17:54.806Z,986.58
2019-01-02T01:18:54.788Z,986.65
2019-01-02T01:19:54.774Z,986.61
2019-01-02T01:20:54.769Z,986.53
2019-01-02T01:21:54.762Z,986.52
2019-01-02T01:22:54.768Z,986.58
2019-01-02T01:23:54.737Z,986.51
2019-01-02T01:24:54.728Z,986.56
2019-01-02T01:25:54.706Z,986.52
2019-01-02T01:26:54.713Z,986.55
2019-01-02T01:27:54.687Z,986.56
2019-01-02T01:28:54.686Z,986.56
2019-01-02T01:29:54.660Z,986.62
2019-01-02T01:30:54.659Z,986.52
2019-01-02T01:31:54.659Z,986.55
2019-01-02T01:32:54.628Z,986.56
2019-01-02T01:33:54.619Z,986.58
2019-01-02T01:34:55.613Z,986.66
2019-01-02T01:35:54.836Z,986.66
2019-01-02T01:36:54.601Z,986.63
2019-01-02T01:37:54.599Z,986.61
2019-01-02T01:38:54.565Z,986.67
2019-01-02T01:39:54.559Z,986.64
2019-01-02T01:40:54.541Z,986.65
2019-01-02T01:41:54.547Z,986.65
2019-01-02T01:42:54.534Z,986.66
2019-01-02T01:43:54.517Z,986.65
2019-01-02T01:44:54.493Z,986.73
2019-01-02T01:45:54.513Z,986.77
2019-01-02T01:46:54.484Z,986.76
2019-01-02T01:47:54.461Z,986.81
2019-01-02T01:48:54.456Z,986.78
2019-01-02T01:49:54.445Z,986.78
2019-01-02T01:50:54.436Z,986.88
2019-01-02T01:51:54.454Z,986.87
2019-01-02T01:52:54.409Z,986.95
2019-01-02T01:53:54.403Z,986.85
2019-01-02T01:54:54.398Z,986.90
2019-01-02T01:55:54.396Z,986.92
2019-01-02T01:56:54.373Z,986.89
2019-01-02T01:57:54.418Z,986.89
2019-01-02T01:58:54.430Z,986.86
2019-01-02T01:59:54.344Z,986.96
2019-01-02T02:00:54.348Z,986.89
2019-01-02T02:01:54.324Z,986.84
2019-01-02T02:02:54.309Z,986.76
2019-01-02T02:03:54.286Z,986.85
2019-01-02T02:04:54.319Z,986.78
2019-01-02T02:05:54.269Z,986.84
2019-01-02T02:06:54.259Z,986.82
2019-01-02T02:07:54.258Z,986.98
2019-01-02T02:08:54.227Z,986.81
2019-01-02T02:09:54.222Z,986.84
2019-01-02T02:10:54.250Z,986.92
2019-01-02T02:11:54.220Z,986.74
2019-01-02T02:12:54.188Z,986.87
2019-01-02T02:13:54.171Z,986.85
2019-01-02T02:14:54.153Z,986.83
2019-01-02T02:15:54.152Z,986.89
2019-01-02T02:16:54.149Z,986.89
2019-01-02T02:17:54.168Z,986.81
2019-01-02T02:18:54.138Z,986.94
2019-01-02T02:19:54.110Z,986.78
2019-01-02T02:20:54.085Z,986.92
2019-01-02T02:21:54.113Z,986.92
2019-01-02T02:22:54.087Z,986.93
2019-01-02T02:23:54.065Z,986.93
2019-01-02T02:24:54.067Z,986.92
2019-01-02T02:25:54.053Z,986.88
2019-01-02T02:26:54.050Z,986.86
2019-01-02T02:27:54.026Z,986.95
2019-01-02T02:28:53.998Z,986.94
2019-01-02T02:29:54.000Z,986.88
2019-01-02T02:30:53.984Z,986.90
2019-01-02T02:31:53.995Z,986.95
2019-01-02T02:32:53.973Z,986.92
2019-01-02T02:33:53.955Z,986.96
2019-01-02T02:34:53.936Z,986.97
2019-01-02T02:35:53.933Z,986.94
2019-01-02T02:36:53.914Z,987.02
2019-01-02T02:37:53.908Z,987.00
2019-01-02T02:38:53.936Z,986.91
2019-01-02T02:39:53.880Z,986.94
2019-01-02T02:40:53.864Z,986.91
2019-01-02T02:41:53.867Z,986.94
2019-01-02T02:42:53.855Z,986.87
2019-01-02T02:43:53.850Z,986.96
2019-01-02T02:44:53.833Z,986.94
2019-01-02T02:45:53.892Z,986.96
2019-01-02T02:46:53.825Z,986.98
2019-01-02T02:47:53.795Z,986.95
2019-01-02T02:48:53.771Z,986.98
2019-01-02T02:49:53.766Z,986.94
2019-01-02T02:50:53.766Z,987.08
2019-01-02T02:51:53.743Z,987.06
2019-01-02T02:52:53.745Z,986.97
2019-01-02T02:53:53.718Z,987.11
2019-01-02T02:54:53.728Z,987.09
2019-01-02T02:55:53.692Z,987.20
2019-01-02T02:56:53.740Z,987.12
2019-01-02T02:57:53.694Z,987.17
2019-01-02T02:58:53.658Z,987.20
2019-01-02T02:59:53.649Z,987.06
2019-01-02T03:00:53.633Z,987.10
2019-01-02T03:01:53.635Z,987.12
2019-01-02T03:02:53.632Z,987.10
2019-01-02T03:03:53.607Z,987.12
2019-01-02T03:04:53.594Z,987.16
2019-01-02T03:05:53.589Z,987.18
2019-01-02T03:06:55.400Z,987.10
2019-01-02T03:07:53.588Z,987.14
2019-01-02T03:08:53.564Z,987.17
2019-01-02T03:09:53.538Z,987.22
2019-01-02T03:10:53.519Z,987.18
2019-01-02T03:11:53.546Z,987.12
2019-01-02T03:12:53.514Z,987.20
2019-01-02T03:13:53.495Z,987.15
2019-01-02T03:14:53.523Z,987.14
2019-01-02T03:15:53.463Z,987.19
2019-01-02T03:16:53.501Z,987.24
2019-01-02T03:17:53.464Z,987.18
2019-01-02T03:18:53.432Z,987.20
2019-01-02T03:19:53.416Z,987.15
2019-01-02T03:20:53.416Z,987.12
2019-01-02T03:21:53.426Z,987.17
2019-01-02T03:22:53.405Z,987.21
2019-01-02T03:23:53.385Z,987.29
2019-01-02T03:24:53.366Z,987.23
2019-01-02T03:25:53.358Z,987.25
2019-01-02T03:26:53.345Z,987.26
2019-01-02T03:27:53.344Z,987.35
2019-01-02T03:28:53.316Z,987.19
2019-01-02T03:29:53.369Z,987.25
2019-01-02T03:30:53.311Z,987.24
2019-01-02T03:31:53.292Z,987.26
2019-01-02T03:32:53.282Z,987.37
2019-01-02T03:33:53.277Z,987.32
2019-01-02T03:34:53.249Z,987.31
2019-01-02T03:35:53.795Z,987.35
2019-01-02T03:36:53.226Z,987.37
2019-01-02T03:37:53.235Z,987.40
2019-01-02T03:38:53.201Z,987.37
2019-01-02T03:39:53.206Z,987.44
2019-01-02T03:40:53.180Z,987.39
2019-01-02T03:41:53.167Z,987.46
2019-01-02T03:42:53.167Z,987.45
2019-01-02T03:43:53.221Z,987.40
2019-01-02T03:44:53.139Z,987.38
2019-01-02T03:45:53.121Z,987.40
2019-01-02T03:46:53.122Z,987.33
2019-01-02T03:47:53.117Z,987.36
2019-01-02T03:48:53.093Z,987.31
2019-01-02T03:49:53.091Z,987.33
2019-01-02T03:50:53.068Z,987.36
2019-01-02T03:51:53.066Z,987.33
2019-01-02T03:52:53.066Z,987.35
2019-01-02T03:53:53.034Z,987.38
2019-01-02T03:54:53.019Z,987.41
2019-01-02T03:55:53.018Z,987.39
2019-01-02T03:56:53.000Z,987.49
2019-01-02T03:57:53.019Z,987.47
2019-01-02T03:58:52.980Z,987.44
2019-01-02T03:59:53.024Z,987.42
2019-01-02T04:00:52.981Z,987.46
2019-01-02T04:01:52.945Z,987.54
2019-01-02T04:02:52.943Z,987.50
2019-01-02T04:03:52.947Z,987.50
2019-01-02T04:04:52.915Z,987.53
2019-01-02T04:05:52.899Z,987.53
2019-01-02T04:06:52.893Z,987.50
2019-01-02T04:07:52.889Z,987.51
2019-01-02T04:08:52.877Z,987.58
2019-01-02T04:09:52.849Z,987.48
2019-01-02T04:10:52.839Z,987.57
2019-01-02T04:11:52.825Z,987.54
2019-01-02T04:12:52.842Z,987.50
2019-01-02T04:13:52.815Z,987.60
2019-01-02T04:14:52.873Z,987.52
2019-01-02T04:15:52.782Z,987.56
2019-01-02T04:16:52.767Z,987.57
2019-01-02T04:17:52.777Z,987.65
2019-01-02T04:18:52.756Z,987.61
2019-01-02T04:19:52.769Z,987.67
2019-01-02T04:20:52.727Z,987.62
2019-01-02T04:21:52.707Z,987.65
2019-01-02T04:22:52.724Z,987.66
2019-01-02T04:23:52.717Z,987.69
2019-01-02T04:24:52.683Z,987.69
2019-01-02T04:25:52.675Z,987.73
2019-01-02T04:26:52.655Z,987.71
2019-01-02T04:27:52.677Z,987.83
2019-01-02T04:28:52.638Z,987.84
2019-01-02T04:29:52.646Z,987.83
2019-01-02T04:30:52.631Z,987.79
2019-01-02T04:31:52.612Z,987.80
2019-01-02T04:32:52.590Z,987.79
2019-01-02T04:33:52.597Z,987.95
2019-01-02T04:34:52.569Z,987.89
2019-01-02T04:35:52.568Z,987.97
2019-01-02T04:36:52.595Z,987.95
2019-01-02T04:37:52.556Z,987.99
2019-01-02T04:38:52.540Z,987.87
2019-01-02T04:39:52.512Z,987.89
2019-01-02T04:40:52.505Z,987.87
2019-01-02T04:41:52.552Z,987.89
2019-01-02T04:42:52.478Z,987.92
2019-01-02T04:43:52.481Z,987.94
2019-01-02T04:44:52.482Z,988.00
2019-01-02T04:45:52.503Z,988.02
2019-01-02T04:46:52.432Z,987.97
2019-01-02T04:47:52.431Z,987.97
2019-01-02T04:48:52.421Z,987.98
2019-01-02T04:49:52.396Z,988.01
2019-01-02T04:50:52.379Z,987.99
2019-01-02T04:51:52.428Z,988.00
2019-01-02T04:52:52.359Z,988.01
2019-01-02T04:53:52.363Z,988.06
2019-01-02T04:54:52.346Z,988.05
2019-01-02T04:55:52.337Z,988.17
2019-01-02T04:56:52.327Z,988.08
2019-01-02T04:57:52.304Z,988.12
2019-01-02T04:58:52.308Z,988.10
2019-01-02T04:59:52.311Z,988.06
2019-01-02T05:00:52.273Z,988.12
2019-01-02T05:01:52.260Z,988.15
2019-01-02T05:02:52.249Z,988.16
2019-01-02T05:03:52.247Z,988.11
2019-01-02T05:04:52.242Z,988.12
2019-01-02T05:05:52.224Z,988.14
2019-01-02T05:06:52.210Z,988.14
2019-01-02T05:07:52.201Z,988.14
2019-01-02T05:08:52.220Z,988.19
2019-01-02T05:09:52.174Z,988.18
2019-01-02T05:10:52.171Z,988.12
2019-01-02T05:11:52.152Z,988.23
2019-01-02T05:12:52.139Z,988.23
2019-01-02T05:13:52.159Z,988.24
2019-01-02T05:14:52.177Z,988.26
2019-01-02T05:15:52.104Z,988.33
2019-01-02T05:16:52.099Z,988.31
2019-01-02T05:17:52.082Z,988.29
2019-01-02T05:18:52.097Z,988.42
2019-01-02T05:19:52.057Z,988.37
2019-01-02T05:20:52.093Z,988.36
2019-01-02T05:21:52.049Z,988.43
2019-01-02T05:22:52.019Z,988.45
2019-01-02T05:23:52.034Z,988.47
2019-01-02T05:24:52.003Z,988.42
2019-01-02T05:25:52.004Z,988.43
2019-01-02T05:26:51.990Z,988.41
2019-01-02T05:27:51.976Z,988.49
2019-01-02T05:28:51.964Z,988.51
2019-01-02T05:29:51.990Z,988.52
2019-01-02T05:30:51.932Z,988.56
2019-01-02T05:31:51.950Z,988.50
2019-01-02T05:32:51.910Z,988.49
2019-01-02T05:33:51.915Z,988.52
2019-01-02T05:34:51.894Z,988.53
2019-01-02T05:35:51.877Z,988.58
2019-01-02T05:36:51.873Z,988.59
2019-01-02T05:37:51.880Z,988.57
2019-01-02T05:38:51.853Z,988.57
2019-01-02T05:39:51.825Z,988.56
2019-01-02T05:40:51.818Z,988.57
2019-01-02T05:41:51.804Z,988.58
2019-01-02T05:42:51.798Z,988.66
2019-01-02T05:43:51.793Z,988.63
2019-01-02T05:44:51.781Z,988.60
2019-01-02T05:45:51.763Z,988.68
2019-01-02T05:46:51.746Z,988.72
2019-01-02T05:47:51.788Z,988.68
2019-01-02T05:48:51.734Z,988.70
2019-01-02T05:49:51.717Z,988.67
2019-01-02T05:50:51.703Z,988.69
2019-01-02T05:51:51.714Z,988.80
2019-01-02T05:52:51.677Z,988.69
2019-01-02T05:53:51.672Z,988.69
2019-01-02T05:54:51.656Z,988.68
2019-01-02T05:55:51.652Z,988.79
2019-01-02T05:56:51.663Z,988.78
2019-01-02T05:57:51.634Z,988.76
2019-01-02T05:58:51.627Z,988.86
2019-01-02T05:59:51.604Z,988.78
2019-01-02T06:00:51.596Z,988.80
2019-01-02T06:01:51.590Z,988.80
2019-01-02T06:02:51.564Z,988.85
2019-01-02T06:03:51.621Z,988.84
2019-01-02T06:04:51.546Z,988.86
2019-01-02T06:05:51.534Z,988.80
2019-01-02T06:06:51.519Z,988.81
2019-01-02T06:07:51.513Z,988.83
2019-01-02T06:08:51.516Z,988.87
2019-01-02T06:09:51.491Z,988.86
2019-01-02T06:10:51.495Z,988.87
2019-01-02T06:11:51.471Z,988.95
2019-01-02T06:12:51.446Z,988.85
2019-01-02T06:13:51.492Z,988.87
2019-01-02T06:14:51.427Z,988.93
2019-01-02T06:15:51.414Z,988.93
2019-01-02T06:16:51.412Z,988.85
2019-01-02T06:17:51.393Z,988.92
2019-01-02T06:18:51.397Z,988.89
2019-01-02T06:19:51.372Z,988.96
2019-01-02T06:20:51.435Z,988.84
2019-01-02T06:21:51.352Z,988.93
2019-01-02T06:22:51.347Z,988.95
2019-01-02T06:23:51.346Z,988.93
2019-01-02T06:24:51.327Z,988.92
2019-01-02T06:25:51.310Z,988.93
2019-01-02T06:26:51.288Z,988.96
2019-01-02T06:27:51.282Z,988.91
2019-01-02T06:28:51.280Z,988.93
2019-01-02T06:29:51.255Z,988.95
2019-01-02T06:30:51.242Z,988.98
2019-01-02T06:31:51.230Z,988.98
2019-01-02T06:32:51.247Z,988.98
2019-01-02T06:33:51.249Z,988.99
2019-01-02T06:34:51.213Z,988.96
2019-01-02T06:35:51.189Z,988.97
2019-01-02T06:36:51.180Z,989.01
2019-01-02T06:37:51.199Z,989.06
2019-01-02T06:38:51.160Z,989.12
2019-01-02T06:39:51.153Z,989.16
2019-01-02T06:40:51.131Z,989.20
2019-01-02T06:41:51.122Z,989.21
2019-01-02T06:42:51.178Z,989.20
2019-01-02T06:43:51.107Z,989.24
2019-01-02T06:44:51.106Z,989.18
2019-01-02T06:45:51.093Z,989.23
2019-01-02T06:46:51.066Z,989.23
2019-01-02T06:47:51.047Z,989.21
2019-01-02T06:48:51.041Z,989.30
2019-01-02T06:49:51.079Z,989.33
2019-01-02T06:50:51.028Z,989.26
2019-01-02T06:51:51.006Z,989.30
2019-01-02T06:52:51.005Z,989.31
2019-01-02T06:53:50.989Z,989.37
2019-01-02T06:54:50.980Z,989.34
2019-01-02T06:55:50.984Z,989.40
2019-01-02T06:56:50.968Z,989.34
2019-01-02T06:57:50.961Z,989.38
2019-01-02T06:58:50.954Z,989.38
2019-01-02T06:59:50.951Z,989.42
2019-01-02T07:00:50.905Z,989.42
2019-01-02T07:01:50.907Z,989.42
2019-01-02T07:02:50.886Z,989.38
2019-01-02T07:03:50.916Z,989.47
2019-01-02T07:04:50.880Z,989.42
2019-01-02T07:05:50.855Z,989.49
2019-01-02T07:06:50.838Z,989.49
2019-01-02T07:07:50.833Z,989.52
2019-01-02T07:08:50.823Z,989.52
2019-01-02T07:09:50.820Z,989.51
2019-01-02T07:10:50.789Z,989.51
2019-01-02T07:11:50.836Z,989.56
2019-01-02T07:12:50.773Z,989.53
2019-01-02T07:13:50.755Z,989.51
2019-01-02T07:14:50.786Z,989.49
2019-01-02T07:15:50.733Z,989.50
2019-01-02T07:16:50.725Z,989.48
2019-01-02T07:17:50.712Z,989.54
2019-01-02T07:18:50.712Z,989.57
2019-01-02T07:19:50.697Z,989.66
2019-01-02T07:20:50.685Z,989.64
2019-01-02T07:21:50.662Z,989.66
2019-01-02T07:22:50.649Z,989.72
2019-01-02T07:23:50.691Z,989.73
2019-01-02T07:24:50.647Z,989.76
2019-01-02T07:25:50.623Z,989.77
2019-01-02T07:26:50.605Z,989.78
2019-01-02T07:27:50.595Z,989.77
2019-01-02T07:28:50.597Z,989.81
2019-01-02T07:29:50.588Z,989.77
2019-01-02T07:30:50.565Z,989.80
2019-01-02T07:31:50.552Z,989.72
2019-01-02T07:32:50.539Z,989.76
2019-01-02T07:33:50.542Z,989.79
2019-01-02T07:34:50.547Z,989.74
2019-01-02T07:35:50.511Z,989.77
2019-01-02T07:36:50.539Z,989.81
2019-01-02T07:37:50.500Z,989.76
2019-01-02T07:38:50.503Z,989.83
2019-01-02T07:39:50.547Z,989.81
2019-01-02T07:40:50.451Z,989.83
2019-01-02T07:41:50.438Z,989.84
2019-01-02T07:42:50.448Z,989.82
2019-01-02T07:43:50.425Z,989.80
2019-01-02T07:44:50.549Z,989.71
2019-01-02T07:45:50.391Z,989.71
2019-01-02T07:46:50.384Z,989.64
2019-01-02T07:47:50.377Z,989.73
2019-01-02T07:48:50.358Z,989.67
2019-01-02T07:49:50.363Z,989.66
2019-01-02T07:50:50.394Z,989.68
2019-01-02T07:51:50.330Z,989.62
2019-01-02T07:52:50.319Z,989.60
2019-01-02T07:53:50.327Z,989.59
2019-01-02T07:54:50.303Z,989.62
2019-01-02T07:55:50.280Z,989.63
2019-01-02T07:56:50.269Z,989.55
2019-01-02T07:57:50.259Z,989.57
2019-01-02T07:58:50.262Z,989.53
2019-01-02T07:59:50.266Z,989.56
2019-01-02T08:00:50.223Z,989.50
2019-01-02T08:01:50.212Z,989.56
2019-01-02T08:02:50.220Z,989.55
2019-01-02T08:03:50.218Z,989.55
2019-01-02T08:04:50.205Z,989.52
2019-01-02T08:05:50.165Z,989.52
2019-01-02T08:06:50.155Z,989.49
2019-01-02T08:07:50.151Z,989.54
2019-01-02T08:08:50.147Z,989.50
2019-01-02T08:09:50.169Z,989.46
2019-01-02T08:10:50.110Z,989.53
2019-01-02T08:11:50.097Z,989.66
2019-01-02T08:12:50.116Z,989.71
2019-01-02T08:13:50.086Z,989.66
2019-01-02T08:14:50.073Z,989.72
2019-01-02T08:15:50.071Z,989.78
2019-01-02T08:16:50.048Z,989.83
2019-01-02T08:17:50.100Z,989.80
2019-01-02T08:18:50.021Z,989.91
2019-01-02T08:19:50.023Z,989.88
2019-01-02T08:20:49.994Z,989.86
2019-01-02T08:21:49.994Z,989.82
2019-01-02T08:22:49.978Z,989.85
2019-01-02T08:23:49.969Z,989.86
2019-01-02T08:24:49.990Z,989.90
2019-01-02T08:25:49.995Z,989.88
2019-01-02T08:26:49.934Z,989.93
2019-01-02T08:27:49.928Z,989.90
2019-01-02T08:28:49.923Z,989.94
2019-01-02T08:29:49.910Z,989.93
2019-01-02T08:30:49.886Z,989.91
2019-01-02T08:31:49.872Z,989.97
2019-01-02T08:32:49.930Z,990.00
2019-01-02T08:33:49.859Z,990.04
2019-01-02T08:34:49.866Z,990.05
2019-01-02T08:35:49.844Z,990.00
2019-01-02T08:36:50.501Z,990.10
2019-01-02T08:37:49.802Z,989.96
2019-01-02T08:38:49.797Z,990.06
2019-01-02T08:39:49.799Z,990.08
2019-01-02T08:40:49.773Z,990.11
2019-01-02T08:41:49.764Z,990.13
2019-01-02T08:42:49.796Z,990.07
2019-01-02T08:43:49.750Z,990.12
2019-01-02T08:44:49.730Z,990.10
2019-01-02T08:45:49.738Z,990.14
2019-01-02T08:46:49.716Z,990.15
2019-01-02T08:47:49.695Z,990.17
2019-01-02T08:48:49.684Z,990.19
2019-01-02T08:49:49.674Z,990.22
2019-01-02T08:50:49.690Z,990.25
2019-01-02T08:51:49.650Z,990.29
2019-01-02T08:52:49.633Z,990.28
2019-01-02T08:53:49.643Z,990.33
2019-01-02T08:54:49.623Z,990.28
2019-01-02T08:55:49.622Z,990.28
2019-01-02T08:56:49.585Z,990.25
2019-01-02T08:57:49.586Z,990.25
2019-01-02T08:58:49.562Z,990.26
2019-01-02T08:59:49.562Z,990.27
2019-01-02T09:00:49.552Z,990.26
2019-01-02T09:01:49.587Z,990.19
2019-01-02T09:02:49.525Z,990.20
2019-01-02T09:03:49.515Z,990.23
2019-01-02T09:04:49.497Z,990.20
2019-01-02T09:05:49.558Z,990.27
2019-01-02T09:06:49.505Z,990.31
2019-01-02T09:07:49.477Z,990.31
2019-01-02T09:08:49.490Z,990.37
2019-01-02T09:09:49.464Z,990.37
2019-01-02T09:10:49.473Z,990.40
2019-01-02T09:11:49.439Z,990.39
2019-01-02T09:12:49.408Z,990.36
2019-01-02T09:13:49.454Z,990.35
2019-01-02T09:14:49.382Z,990.38
2019-01-02T09:15:49.380Z,990.37
2019-01-02T09:16:49.370Z,990.40
2019-01-02T09:17:49.351Z,990.42
2019-01-02T09:18:49.395Z,990.46
2019-01-02T09:19:49.330Z,990.47
2019-01-02T09:20:49.382Z,990.47
2019-01-02T09:21:49.308Z,990.45
2019-01-02T09:22:49.296Z,990.49
2019-01-02T09:23:49.287Z,990.49
2019-01-02T09:24:49.280Z,990.51
2019-01-02T09:25:49.276Z,990.47
2019-01-02T09:26:49.259Z,990.45
2019-01-02T09:27:49.240Z,990.56
2019-01-02T09:28:49.223Z,990.54
2019-01-02T09:29:49.227Z,990.62
2019-01-02T09:30:49.214Z,990.56
2019-01-02T09:31:49.187Z,990.61
2019-01-02T09:32:49.175Z,990.58
2019-01-02T09:33:52.302Z,990.62
2019-01-02T09:34:49.173Z,990.64
2019-01-02T09:35:50.804Z,990.55
2019-01-02T09:36:49.136Z,990.51
2019-01-02T09:37:49.118Z,990.52
2019-01-02T09:38:49.121Z,990.55
2019-01-02T09:39:49.098Z,990.51
2019-01-02T09:40:49.097Z,990.53
2019-01-02T09:41:49.118Z,990.51
2019-01-02T09:42:49.128Z,990.40
2019-01-02T09:43:49.058Z,990.43
2019-01-02T09:44:49.049Z,990.43
2019-01-02T09:45:49.048Z,990.42
2019-01-02T09:46:49.099Z,990.42
2019-01-02T09:47:49.014Z,990.47
2019-01-02T09:48:49.004Z,990.43
2019-01-02T09:49:49.001Z,990.40
2019-01-02T09:50:48.992Z,990.49
2019-01-02T09:51:48.972Z,990.48
2019-01-02T09:52:48.974Z,990.47
2019-01-02T09:53:48.942Z,990.41
2019-01-02T09:54:48.939Z,990.48
2019-01-02T09:55:48.986Z,990.44
2019-01-02T09:56:48.913Z,990.46
2019-01-02T09:57:48.910Z,990.49
2019-01-02T09:58:48.909Z,990.44
2019-01-02T09:59:48.885Z,990.39
2019-01-02T10:00:48.995Z,990.49
2019-01-02T10:01:48.850Z,990.44
2019-01-02T10:02:48.844Z,990.46
2019-01-02T10:03:48.841Z,990.49
2019-01-02T10:04:48.830Z,990.53
2019-01-02T10:05:48.810Z,990.49
2019-01-02T10:06:48.792Z,990.43
2019-01-02T10:07:48.999Z,990.46
2019-01-02T10:08:48.777Z,990.48
2019-01-02T10:09:48.762Z,990.56
2019-01-02T10:10:48.850Z,990.52
2019-01-02T10:11:48.739Z,990.64
2019-01-02T10:12:48.813Z,990.66
2019-01-02T10:13:48.712Z,990.69
2019-01-02T10:14:48.706Z,990.65
2019-01-02T10:15:48.727Z,990.70
2019-01-02T10:16:48.679Z,990.74
2019-01-02T10:17:48.665Z,990.68
2019-01-02T10:18:48.706Z,990.71
2019-01-02T10:19:48.643Z,990.70
2019-01-02T10:20:48.642Z,990.72
2019-01-02T10:21:48.625Z,990.77
2019-01-02T10:22:48.609Z,990.74
2019-01-02T10:23:48.638Z,990.78
2019-01-02T10:24:48.593Z,990.78
2019-01-02T10:25:48.590Z,990.81
2019-01-02T10:26:48.563Z,990.78
2019-01-02T10:27:48.554Z,990.74
2019-01-02T10:28:48.548Z,990.75
2019-01-02T10:29:48.553Z,990.77
2019-01-02T10:30:48.593Z,990.83
2019-01-02T10:31:48.504Z,990.81
2019-01-02T10:32:48.495Z,990.81
2019-01-02T10:33:48.486Z,990.81
2019-01-02T10:34:48.471Z,990.79
2019-01-02T10:35:48.527Z,990.81
2019-01-02T10:36:48.450Z,990.76
2019-01-02T10:37:48.440Z,990.75
2019-01-02T10:38:48.487Z,990.79
2019-01-02T10:39:48.416Z,990.78
2019-01-02T10:40:48.449Z,990.82
2019-01-02T10:41:48.395Z,990.82
2019-01-02T10:42:48.392Z,990.76
2019-01-02T10:43:48.416Z,990.75
2019-01-02T10:44:48.363Z,990.80
2019-01-02T10:45:48.363Z,990.83
2019-01-02T10:46:48.365Z,990.75
2019-01-02T10:47:48.325Z,990.84
2019-01-02T10:48:48.315Z,990.79
2019-01-02T10:49:48.313Z,990.74
2019-01-02T10:50:48.346Z,990.76
2019-01-02T10:51:48.280Z,990.78
2019-01-02T10:52:48.302Z,990.78
2019-01-02T10:53:48.255Z,990.77
2019-01-02T10:54:48.247Z,990.77
2019-01-02T10:55:48.256Z,990.68
2019-01-02T10:56:48.234Z,990.80
2019-01-02T10:57:48.224Z,990.77
2019-01-02T10:58:48.208Z,990.72
2019-01-02T10:59:48.207Z,990.73
2019-01-02T11:00:48.176Z,990.71
2019-01-02T11:01:48.191Z,990.76
2019-01-02T11:02:48.155Z,990.86
2019-01-02T11:03:48.144Z,990.76
2019-01-02T11:04:48.131Z,990.78
2019-01-02T11:05:48.123Z,990.75
2019-01-02T11:06:48.139Z,990.81
2019-01-02T11:07:48.203Z,990.83
2019-01-02T11:08:48.099Z,990.92
2019-01-02T11:09:48.097Z,990.82
2019-01-02T11:10:48.081Z,990.83
2019-01-02T11:11:48.106Z,990.76
2019-01-02T11:12:48.038Z,990.87
2019-01-02T11:13:48.060Z,990.85
2019-01-02T11:14:48.021Z,990.88
2019-01-02T11:15:48.008Z,990.88
2019-01-02T11:16:48.045Z,990.75
2019-01-02T11:17:47.989Z,990.85
2019-01-02T11:18:47.971Z,990.86
2019-01-02T11:19:47.963Z,990.95
2019-01-02T11:20:47.962Z,990.88
2019-01-02T11:21:47.964Z,991.02
2019-01-02T11:22:47.959Z,990.90
2019-01-02T11:23:47.913Z,991.04
2019-01-02T11:24:47.904Z,990.97
2019-01-02T11:25:47.895Z,991.01
2019-01-02T11:26:47.893Z,991.06
2019-01-02T11:27:47.867Z,990.98
2019-01-02T11:28:47.915Z,990.95
2019-01-02T11:29:47.850Z,990.99
2019-01-02T11:30:47.840Z,991.03
2019-01-02T11:31:47.837Z,991.03
2019-01-02T11:32:47.820Z,991.00
2019-01-02T11:33:47.802Z,991.04
2019-01-02T11:34:47.799Z,991.01
2019-01-02T11:35:47.817Z,991.03
2019-01-02T11:36:47.781Z,991.12
2019-01-02T11:37:47.764Z,991.07
2019-01-02T11:38:47.757Z,991.04
2019-01-02T11:39:47.749Z,990.98
2019-01-02T11:40:47.725Z,991.10
2019-01-02T11:41:47.719Z,991.25
2019-01-02T11:42:47.703Z,991.12
2019-01-02T11:43:47.685Z,991.16
2019-01-02T11:44:47.678Z,991.19
2019-01-02T11:45:47.695Z,991.28
2019-01-02T11:46:47.663Z,991.25
2019-01-02T11:47:47.645Z,991.25
2019-01-02T11:48:47.630Z,991.29
2019-01-02T11:49:47.624Z,991.30
2019-01-02T11:50:47.619Z,991.24
2019-01-02T11:51:47.642Z,991.33
2019-01-02T11:52:47.588Z,991.29
2019-01-02T11:53:47.586Z,991.29
2019-01-02T11:54:47.566Z,991.28
2019-01-02T11:55:47.550Z,991.32
2019-01-02T11:56:47.559Z,991.40
2019-01-02T11:57:47.575Z,991.46
2019-01-02T11:58:49.986Z,991.34
2019-01-02T11:59:47.536Z,991.39
2019-01-02T12:00:47.495Z,991.38
2019-01-02T12:01:47.528Z,991.44
2019-01-02T12:02:47.485Z,991.36
2019-01-02T12:03:47.507Z,991.45
2019-01-02T12:04:47.453Z,991.43
2019-01-02T12:05:47.443Z,991.33
2019-01-02T12:06:47.446Z,991.46
2019-01-02T12:07:47.438Z,991.47
2019-01-02T12:08:47.408Z,991.50
2019-01-02T12:09:47.418Z,991.47
2019-01-02T12:10:47.387Z,991.47
2019-01-02T12:11:47.387Z,991.50
2019-01-02T12:12:47.366Z,991.51
2019-01-02T12:13:47.353Z,991.49
2019-01-02T12:14:47.337Z,991.55
2019-01-02T12:15:47.355Z,991.57
2019-01-02T12:16:47.321Z,991.60
2019-01-02T12:17:47.308Z,991.54
2019-01-02T12:18:47.302Z,991.53
2019-01-02T12:19:47.278Z,991.60
2019-01-02T12:20:47.268Z,991.54
2019-01-02T12:21:47.293Z,991.64
2019-01-02T12:22:47.256Z,991.57
2019-01-02T12:23:47.247Z,991.59
2019-01-02T12:24:47.226Z,991.65
2019-01-02T12:25:47.214Z,991.60
2019-01-02T12:26:47.213Z,991.66
2019-01-02T12:27:47.241Z,991.70
2019-01-02T12:28:47.174Z,991.67